createdAt,value
2023-04-18T00:01:01.759Z,6.43
2023-04-18T00:03:29.992Z,6.50
2023-04-18T00:05:57.929Z,6.35
2023-04-18T00:08:24.233Z,6.75
2023-04-18T00:10:50.554Z,6.60
2023-04-18T00:13:18.217Z,6.53
2023-04-18T00:15:46.164Z,6.57
2023-04-18T00:18:16.961Z,7.07
2023-04-18T00:20:43.314Z,6.55
2023-04-18T00:23:13.763Z,5.57
2023-04-18T00:25:40.899Z,6.63
2023-04-18T00:28:07.214Z,6.22
2023-04-18T00:30:33.609Z,5.90
2023-04-18T00:33:00.289Z,6.93
2023-04-18T00:35:26.733Z,6.35
2023-04-18T00:37:53.057Z,6.05
2023-04-18T00:40:19.556Z,6.90
2023-04-18T00:42:45.829Z,6.15
2023-04-18T00:45:12.173Z,6.25
2023-04-18T00:47:38.664Z,6.00
2023-04-18T00:50:05.874Z,6.30
2023-04-18T00:52:34.706Z,6.20
2023-04-18T00:55:02.566Z,6.13
2023-04-18T00:57:29.647Z,7.15
2023-04-18T00:59:56.107Z,6.10
2023-04-18T01:02:22.791Z,6.10
2023-04-18T01:04:49.300Z,6.93
2023-04-18T01:07:15.661Z,6.07
2023-04-18T01:09:42.051Z,6.03
2023-04-18T01:12:08.337Z,6.45
2023-04-18T01:14:34.602Z,5.85
2023-04-18T01:17:01.443Z,7.07
2023-04-18T01:21:54.237Z,6.82
2023-04-18T01:24:20.542Z,5.88
2023-04-18T01:26:49.572Z,6.30
2023-04-18T01:29:15.889Z,6.88
2023-04-18T01:31:42.376Z,6.88
2023-04-18T01:34:08.776Z,6.28
2023-04-18T01:36:36.493Z,5.95
2023-04-18T01:39:03.076Z,6.57
2023-04-18T01:41:32.271Z,5.68
2023-04-18T01:43:59.347Z,6.63
2023-04-18T01:46:25.717Z,7.13
2023-04-18T01:48:52.035Z,6.88
2023-04-18T01:51:18.466Z,6.68
2023-04-18T01:53:44.767Z,6.25
2023-04-18T01:56:11.127Z,6.50
2023-04-18T01:58:37.476Z,6.68
2023-04-18T02:01:04.079Z,7.10
2023-04-18T02:03:30.694Z,6.97
2023-04-18T02:05:57.068Z,6.45
2023-04-18T02:08:23.379Z,6.20
2023-04-18T02:10:49.689Z,6.40
2023-04-18T02:13:16.010Z,6.78
2023-04-18T02:15:45.072Z,7.45
2023-04-18T02:18:11.960Z,7.43
2023-04-18T02:23:05.418Z,6.30
2023-04-18T02:25:31.756Z,8.05
2023-04-18T02:27:58.121Z,7.63
2023-04-18T02:30:25.647Z,7.03
2023-04-18T02:32:53.300Z,7.10
2023-04-18T02:35:20.810Z,7.28
2023-04-18T02:37:47.085Z,7.72
2023-04-18T02:40:13.601Z,7.80
2023-04-18T02:42:39.933Z,7.95
2023-04-18T02:45:07.306Z,7.82
2023-04-18T02:47:43.523Z,7.90
2023-04-18T02:50:17.868Z,8.32
2023-04-18T02:52:44.177Z,8.20
2023-04-18T02:55:10.535Z,7.75
2023-04-18T02:57:36.830Z,7.90
2023-04-18T03:00:03.426Z,8.00
2023-04-18T03:02:29.822Z,8.23
2023-04-18T03:04:56.524Z,8.02
2023-04-18T03:07:22.868Z,7.53
2023-04-18T03:09:49.160Z,6.97
2023-04-18T03:12:15.433Z,8.75
2023-04-18T03:14:41.752Z,9.05
2023-04-18T03:17:08.051Z,7.90
2023-04-18T03:19:34.360Z,8.10
2023-04-18T03:22:00.616Z,8.57
2023-04-18T03:24:26.901Z,8.23
2023-04-18T03:26:53.236Z,8.90
2023-04-18T03:29:19.552Z,8.55
2023-04-18T03:31:46.014Z,8.38
2023-04-18T03:34:12.750Z,9.40
2023-04-18T03:39:05.602Z,8.77
2023-04-18T03:41:31.881Z,9.60
2023-04-18T03:43:58.132Z,8.70
2023-04-18T03:46:24.674Z,8.32
2023-04-18T03:48:51.011Z,10.00
2023-04-18T03:51:17.653Z,9.30
2023-04-18T03:53:43.932Z,9.43
2023-04-18T03:56:10.466Z,9.52
2023-04-18T03:58:36.903Z,9.95
2023-04-18T04:01:03.439Z,10.05
2023-04-18T04:03:30.009Z,10.30
2023-04-18T04:05:56.719Z,9.93
2023-04-18T04:08:23.049Z,9.13
2023-04-18T04:10:49.307Z,10.27
2023-04-18T04:13:15.691Z,9.20
2023-04-18T04:15:41.993Z,9.27
2023-04-18T04:18:08.984Z,10.02
2023-04-18T04:20:35.438Z,9.77
2023-04-18T04:23:02.029Z,9.10
2023-04-18T04:25:33.137Z,9.07
2023-04-18T04:28:02.564Z,10.55
2023-04-18T04:30:28.880Z,10.48
2023-04-18T04:32:55.222Z,9.63
2023-04-18T04:35:21.913Z,10.48
2023-04-18T04:37:48.372Z,10.05
2023-04-18T04:40:15.598Z,10.52
2023-04-18T04:42:42.222Z,9.90
2023-04-18T04:45:09.517Z,11.25
2023-04-18T04:47:36.585Z,10.30
2023-04-18T04:50:04.221Z,9.70
2023-04-18T04:52:32.670Z,10.57
2023-04-18T04:54:59.010Z,11.55
2023-04-18T04:57:25.422Z,11.00
2023-04-18T04:59:51.706Z,11.50
2023-04-18T05:02:18.109Z,11.57
2023-04-18T05:04:44.418Z,11.68
2023-04-18T05:07:10.838Z,11.68
2023-04-18T05:09:37.107Z,11.30
2023-04-18T05:12:03.698Z,11.15
2023-04-18T05:14:30.877Z,10.80
2023-04-18T05:16:57.464Z,11.57
2023-04-18T05:19:23.852Z,11.18
2023-04-18T05:21:50.158Z,11.48
2023-04-18T05:24:16.664Z,12.50
2023-04-18T05:26:43.282Z,12.10
2023-04-18T05:29:09.900Z,13.38
2023-04-18T05:31:36.350Z,12.07
2023-04-18T05:34:02.679Z,10.95
2023-04-18T05:36:29.012Z,11.85
2023-04-18T05:38:55.286Z,12.13
2023-04-18T05:41:21.597Z,12.32
2023-04-18T05:44:01.762Z,11.15
2023-04-18T05:46:31.568Z,11.68
2023-04-18T05:48:58.070Z,11.32
2023-04-18T05:51:24.393Z,12.48
2023-04-18T05:53:51.048Z,11.70
2023-04-18T05:56:17.427Z,12.50
2023-04-18T05:58:45.482Z,11.75
2023-04-18T06:01:14.099Z,11.60
2023-04-18T06:03:41.508Z,13.05
2023-04-18T06:06:08.193Z,11.88
2023-04-18T06:08:34.484Z,12.63
2023-04-18T06:11:00.850Z,11.55
2023-04-18T06:13:27.128Z,11.27
2023-04-18T06:15:53.563Z,11.48
2023-04-18T06:18:19.887Z,11.68
2023-04-18T06:20:46.243Z,12.25
2023-04-18T06:23:12.617Z,12.25
2023-04-18T06:25:42.044Z,11.07
2023-04-18T06:28:09.059Z,11.48
2023-04-18T06:30:35.797Z,12.27
2023-04-18T06:33:02.270Z,11.85
2023-04-18T06:35:30.732Z,13.07
2023-04-18T06:37:57.428Z,10.98
2023-04-18T06:40:23.718Z,11.73
2023-04-18T06:42:50.033Z,11.57
2023-04-18T06:45:16.441Z,11.18
2023-04-18T06:47:42.944Z,10.93
2023-04-18T06:50:09.605Z,11.25
2023-04-18T06:52:40.418Z,10.18
2023-04-18T06:55:08.202Z,10.82
2023-04-18T06:57:34.750Z,10.68
2023-04-18T07:00:01.089Z,9.55
2023-04-18T07:02:27.508Z,10.55
2023-04-18T07:04:53.869Z,10.45
2023-04-18T07:07:20.399Z,9.95
2023-04-18T07:09:46.681Z,8.98
2023-04-18T07:12:12.976Z,11.27
2023-04-18T07:14:39.257Z,10.20
2023-04-18T07:17:05.730Z,10.23
2023-04-18T07:19:32.051Z,10.65
2023-04-18T07:21:58.385Z,11.02
2023-04-18T07:24:24.728Z,10.70
2023-04-18T07:26:53.806Z,9.43
2023-04-18T07:29:21.284Z,10.25
2023-04-18T07:31:48.224Z,11.18
2023-04-18T07:34:15.024Z,10.98
2023-04-18T07:36:42.375Z,9.75
2023-04-18T07:39:08.996Z,10.43
2023-04-18T07:41:35.624Z,10.07
2023-04-18T07:44:02.237Z,10.13
2023-04-18T07:46:28.968Z,9.00
2023-04-18T07:48:55.279Z,9.70
2023-04-18T07:51:22.047Z,11.15
2023-04-18T07:53:48.346Z,9.70
2023-04-18T07:56:14.964Z,10.60
2023-04-18T07:58:41.355Z,9.77
2023-04-18T08:01:08.857Z,9.85
2023-04-18T08:03:37.128Z,10.55
2023-04-18T08:06:03.729Z,9.18
2023-04-18T08:08:30.107Z,8.85
2023-04-18T08:10:56.461Z,10.32
2023-04-18T08:13:22.800Z,9.40
2023-04-18T08:15:49.116Z,9.68
2023-04-18T08:18:15.472Z,9.52
2023-04-18T08:20:41.848Z,9.90
2023-04-18T08:23:11.151Z,9.20
2023-04-18T08:25:38.774Z,9.15
2023-04-18T08:28:05.299Z,8.50
2023-04-18T08:30:31.753Z,8.77
2023-04-18T08:32:59.665Z,8.48
2023-04-18T08:35:26.243Z,7.63
2023-04-18T08:37:52.791Z,7.95
2023-04-18T08:40:20.570Z,8.35
2023-04-18T08:42:47.000Z,8.02
2023-04-18T08:45:14.123Z,8.43
2023-04-18T08:47:43.310Z,8.82
2023-04-18T08:50:10.559Z,8.55
2023-04-18T08:52:39.694Z,7.32
2023-04-18T08:55:07.212Z,7.13
2023-04-18T08:57:35.768Z,7.93
2023-04-18T09:00:02.101Z,8.15
2023-04-18T09:02:38.902Z,7.20
2023-04-18T09:05:16.532Z,7.15
2023-04-18T09:07:43.091Z,7.03
2023-04-18T09:10:10.063Z,6.50
2023-04-18T09:12:50.099Z,6.47
2023-04-18T09:15:20.176Z,7.70
2023-04-18T09:17:51.126Z,7.25
2023-04-18T09:20:30.622Z,7.07
2023-04-18T09:25:40.810Z,6.25
2023-04-18T09:28:27.832Z,7.35
2023-04-18T09:30:56.073Z,6.80
2023-04-18T09:33:32.350Z,7.00
2023-04-18T09:36:19.140Z,6.95
2023-04-18T09:38:46.050Z,6.35
2023-04-18T09:41:15.566Z,6.70
2023-04-18T09:43:41.896Z,6.50
2023-04-18T09:46:09.420Z,6.28
2023-04-18T09:48:35.990Z,5.95
2023-04-18T09:53:34.761Z,6.45
2023-04-18T09:56:02.567Z,6.95
2023-04-18T09:58:32.817Z,6.18
2023-04-18T10:00:59.182Z,6.10
2023-04-18T10:03:32.713Z,6.50
2023-04-18T10:05:59.160Z,6.30
2023-04-18T10:08:27.133Z,6.15
2023-04-18T10:10:55.814Z,6.22
2023-04-18T10:13:23.774Z,6.20
2023-04-18T10:15:52.294Z,6.18
2023-04-18T10:18:23.315Z,6.45
2023-04-18T10:20:49.822Z,6.30
2023-04-18T10:23:31.496Z,6.68
2023-04-18T10:25:58.969Z,5.60
2023-04-18T10:28:26.475Z,6.18
2023-04-18T10:30:56.224Z,5.97
2023-04-18T10:36:22.400Z,5.78
2023-04-18T10:39:00.322Z,8.05
2023-04-18T10:41:29.160Z,6.03
2023-04-18T10:44:08.697Z,5.72
2023-04-18T10:46:40.462Z,5.82
2023-04-18T10:49:18.279Z,6.43
2023-04-18T10:51:46.476Z,5.55
2023-04-18T10:54:19.710Z,5.53
2023-04-18T10:56:56.934Z,5.70
2023-04-18T10:59:25.045Z,5.38
2023-04-18T11:01:57.493Z,5.35
2023-04-18T11:04:25.367Z,5.25
2023-04-18T11:06:56.042Z,5.25
2023-04-18T11:09:23.048Z,5.53
2023-04-18T11:12:06.476Z,4.47
2023-04-18T11:14:46.044Z,5.55
2023-04-18T11:17:16.190Z,5.88
2023-04-18T11:19:43.224Z,5.15
2023-04-18T11:22:09.754Z,4.82
2023-04-18T11:24:36.566Z,5.38
2023-04-18T11:27:09.346Z,4.10
2023-04-18T11:32:02.259Z,4.32
2023-04-18T11:36:57.560Z,4.78
2023-04-18T11:39:23.976Z,4.22
2023-04-18T11:44:18.550Z,3.97
2023-04-18T11:46:44.979Z,4.75
2023-04-18T11:49:27.795Z,4.57
2023-04-18T11:51:54.190Z,4.47
2023-04-18T11:54:41.074Z,4.68
2023-04-18T11:57:20.027Z,4.40
2023-04-18T11:59:51.162Z,4.22
2023-04-18T12:02:17.687Z,4.35
2023-04-18T12:04:53.151Z,6.93
2023-04-18T12:07:34.655Z,4.32
2023-04-18T12:10:01.294Z,4.43
2023-04-18T12:12:27.693Z,4.00
2023-04-18T12:15:08.583Z,4.20
2023-04-18T12:17:36.563Z,3.83
2023-04-18T12:20:05.183Z,4.30
2023-04-18T12:22:47.241Z,4.10
2023-04-18T12:25:27.368Z,4.43
2023-04-18T12:27:57.742Z,4.15
2023-04-18T12:30:29.516Z,3.60
2023-04-18T12:32:57.961Z,3.95
2023-04-18T12:35:25.569Z,4.13
2023-04-18T12:37:54.437Z,4.32
2023-04-18T12:40:22.756Z,4.15
2023-04-18T12:42:50.571Z,3.65
2023-04-18T12:45:17.876Z,3.80
2023-04-18T12:47:46.524Z,3.70
2023-04-18T12:50:21.571Z,4.72
2023-04-18T12:52:48.380Z,3.58
2023-04-18T12:55:15.493Z,3.70
2023-04-18T12:57:43.605Z,3.97
2023-04-18T13:00:12.778Z,3.95
2023-04-18T13:02:44.146Z,4.07
2023-04-18T13:05:12.485Z,3.72
2023-04-18T13:07:40.621Z,3.38
2023-04-18T13:10:09.000Z,3.45
2023-04-18T13:12:35.942Z,3.80
2023-04-18T13:15:03.287Z,3.63
2023-04-18T13:17:29.692Z,4.72
2023-04-18T13:22:22.554Z,4.30
2023-04-18T13:24:48.861Z,4.22
2023-04-18T13:27:15.286Z,3.90
2023-04-18T13:29:43.356Z,4.10
2023-04-18T13:32:10.306Z,3.63
2023-04-18T13:34:42.084Z,3.90
2023-04-18T13:37:08.544Z,4.57
2023-04-18T13:42:04.470Z,4.28
2023-04-18T13:44:31.337Z,3.97
2023-04-18T13:46:57.962Z,5.65
2023-04-18T13:49:24.284Z,4.43
2023-04-18T13:51:53.369Z,4.25
2023-04-18T13:54:20.066Z,4.30
2023-04-18T13:56:46.378Z,4.70
2023-04-18T13:59:13.086Z,4.53
2023-04-18T14:01:39.793Z,4.68
2023-04-18T14:04:06.447Z,4.85
2023-04-18T14:06:33.130Z,4.70
2023-04-18T14:11:25.793Z,3.88
2023-04-18T14:13:52.132Z,4.03
2023-04-18T14:16:19.169Z,4.35
2023-04-18T14:18:46.086Z,4.35
2023-04-18T14:21:12.386Z,4.60
2023-04-18T14:23:38.651Z,4.40
2023-04-18T14:26:05.287Z,4.85
2023-04-18T14:28:31.994Z,4.85
2023-04-18T14:31:01.894Z,4.57
2023-04-18T14:33:28.999Z,4.35
2023-04-18T14:35:55.259Z,5.18
2023-04-18T14:38:21.649Z,4.38
2023-04-18T14:43:14.334Z,4.90
2023-04-18T14:45:40.709Z,4.90
2023-04-18T14:50:38.421Z,4.90
2023-04-18T14:53:06.094Z,4.20
2023-04-18T14:55:33.976Z,4.78
2023-04-18T14:58:01.078Z,4.82
2023-04-18T15:00:28.185Z,4.45
2023-04-18T15:02:54.891Z,4.78
2023-04-18T15:05:23.875Z,4.88
2023-04-18T15:07:51.804Z,4.97
2023-04-18T15:10:19.564Z,3.85
2023-04-18T15:12:48.901Z,4.93
2023-04-18T15:15:15.292Z,4.72
2023-04-18T15:17:41.841Z,4.50
2023-04-18T15:20:09.309Z,4.60
2023-04-18T15:22:36.066Z,4.32
2023-04-18T15:25:04.201Z,4.80
2023-04-18T15:27:30.595Z,4.82
2023-04-18T15:32:23.315Z,4.38
2023-04-18T15:34:49.912Z,4.70
2023-04-18T15:37:16.160Z,8.40
2023-04-18T15:39:42.480Z,4.20
2023-04-18T15:42:08.778Z,4.28
2023-04-18T15:44:35.040Z,4.32
2023-04-18T15:47:01.840Z,4.47
2023-04-18T15:49:28.261Z,4.40
2023-04-18T15:51:54.547Z,4.47
2023-04-18T15:54:20.917Z,4.43
2023-04-18T15:56:47.186Z,4.18
2023-04-18T15:59:13.531Z,4.13
2023-04-18T16:01:39.973Z,4.82
2023-04-18T16:06:33.574Z,4.18
2023-04-18T16:08:59.876Z,3.78
2023-04-18T16:11:26.371Z,3.92
2023-04-18T16:16:19.336Z,3.90
2023-04-18T16:18:45.740Z,4.47
2023-04-18T16:21:16.038Z,4.35
2023-04-18T16:23:42.966Z,4.18
2023-04-18T16:26:09.250Z,3.97
2023-04-18T16:28:38.259Z,4.20
2023-04-18T16:31:05.896Z,4.13
2023-04-18T16:33:32.447Z,4.05
2023-04-18T16:38:27.266Z,3.80
2023-04-18T16:40:57.543Z,4.30
2023-04-18T16:43:26.663Z,3.65
2023-04-18T16:45:56.206Z,3.42
2023-04-18T16:48:23.117Z,3.65
2023-04-18T16:50:49.811Z,3.47
2023-04-18T16:53:16.561Z,3.63
2023-04-18T16:55:43.320Z,3.80
2023-04-18T16:58:09.739Z,4.43
2023-04-18T17:00:38.395Z,4.05
2023-04-18T17:03:07.233Z,4.72
2023-04-18T17:05:33.672Z,4.18
2023-04-18T17:08:00.286Z,4.00
2023-04-18T17:10:28.996Z,3.47
2023-04-18T17:12:55.436Z,3.63
2023-04-18T17:15:21.963Z,4.82
2023-04-18T17:20:15.923Z,4.43
2023-04-18T17:22:42.275Z,3.92
2023-04-18T17:25:09.197Z,4.13
2023-04-18T17:27:35.555Z,4.28
2023-04-18T17:30:01.854Z,3.88
2023-04-18T17:32:28.479Z,4.40
2023-04-18T17:34:55.641Z,4.32
2023-04-18T17:37:22.301Z,3.92
2023-04-18T17:39:49.211Z,4.57
2023-04-18T17:42:15.766Z,4.05
2023-04-18T17:47:08.431Z,5.07
2023-04-18T17:49:34.964Z,4.75
2023-04-18T17:54:28.048Z,4.40
2023-04-18T17:56:54.306Z,4.32
2023-04-18T17:59:20.571Z,5.47
2023-04-18T18:01:47.026Z,5.32
2023-04-18T18:04:13.765Z,5.00
2023-04-18T18:06:41.951Z,4.82
2023-04-18T18:09:08.304Z,4.70
2023-04-18T18:11:35.149Z,4.78
2023-04-18T18:14:01.598Z,5.05
2023-04-18T18:16:27.969Z,5.15
2023-04-18T18:18:54.607Z,4.95
2023-04-18T18:21:20.946Z,4.82
2023-04-18T18:23:47.274Z,6.03
2023-04-18T18:26:13.575Z,4.78
2023-04-18T18:28:39.911Z,4.90
2023-04-18T18:31:06.224Z,5.38
2023-04-18T18:33:32.527Z,5.35
2023-04-18T18:35:59.482Z,5.53
2023-04-18T18:38:25.817Z,6.20
2023-04-18T18:40:52.110Z,5.40
2023-04-18T18:43:18.442Z,5.90
2023-04-18T18:45:44.767Z,5.20
2023-04-18T18:48:11.524Z,5.10
2023-04-18T18:50:37.820Z,5.47
2023-04-18T18:53:05.932Z,4.82
2023-04-18T18:55:32.244Z,5.65
2023-04-18T18:57:58.574Z,6.28
2023-04-18T19:00:25.009Z,5.15
2023-04-18T19:02:51.546Z,5.63
2023-04-18T19:07:44.240Z,5.97
2023-04-18T19:10:11.116Z,5.53
2023-04-18T19:12:38.101Z,5.50
2023-04-18T19:15:05.325Z,5.90
2023-04-18T19:17:31.967Z,6.07
2023-04-18T19:22:25.493Z,5.68
2023-04-18T19:24:51.990Z,5.55
2023-04-18T19:27:18.489Z,6.22
2023-04-18T19:29:44.782Z,5.78
2023-04-18T19:32:11.140Z,5.00
2023-04-18T19:34:37.666Z,5.82
2023-04-18T19:37:04.514Z,5.22
2023-04-18T19:39:31.005Z,5.93
2023-04-18T19:41:57.298Z,6.03
2023-04-18T19:44:23.619Z,5.72
2023-04-18T19:46:49.880Z,6.28
2023-04-18T19:49:16.410Z,5.93
2023-04-18T19:54:09.122Z,5.80
2023-04-18T19:56:35.556Z,7.38
2023-04-18T19:59:02.306Z,6.35
2023-04-18T20:01:28.632Z,6.75
2023-04-18T20:03:58.303Z,6.60
2023-04-18T20:06:26.518Z,7.05
2023-04-18T20:08:55.776Z,6.90
2023-04-18T20:11:22.205Z,5.70
2023-04-18T20:13:48.897Z,7.00
2023-04-18T20:18:44.260Z,6.30
2023-04-18T20:21:11.297Z,7.28
2023-04-18T20:23:38.023Z,7.40
2023-04-18T20:26:04.538Z,7.07
2023-04-18T20:30:57.605Z,6.40
2023-04-18T20:33:23.929Z,6.63
2023-04-18T20:35:50.262Z,7.38
2023-04-18T20:38:16.520Z,5.95
2023-04-18T20:40:44.710Z,5.72
2023-04-18T20:43:12.588Z,7.07
2023-04-18T20:45:42.560Z,7.57
2023-04-18T20:48:09.546Z,6.32
2023-04-18T20:50:35.870Z,6.50
2023-04-18T20:53:03.958Z,7.35
2023-04-18T20:55:30.356Z,7.15
2023-04-18T20:57:56.706Z,6.78
2023-04-18T21:00:23.219Z,6.40
2023-04-18T21:02:49.807Z,6.55
2023-04-18T21:07:44.023Z,6.82
2023-04-18T21:10:11.573Z,6.70
2023-04-18T21:12:37.834Z,6.68
2023-04-18T21:15:05.387Z,6.28
2023-04-18T21:17:31.730Z,6.63
2023-04-18T21:19:58.015Z,7.07
2023-04-18T21:22:24.288Z,6.57
2023-04-18T21:24:50.575Z,6.68
2023-04-18T21:27:16.925Z,6.70
2023-04-18T21:29:43.256Z,6.57
2023-04-18T21:32:09.585Z,6.78
2023-04-18T21:34:35.862Z,7.13
2023-04-18T21:37:02.333Z,6.72
2023-04-18T21:39:28.602Z,6.40
2023-04-18T21:41:54.881Z,5.90
2023-04-18T21:44:21.233Z,6.05
2023-04-18T21:46:47.510Z,6.60
2023-04-18T21:49:13.900Z,5.65
2023-04-18T21:51:40.274Z,7.32
2023-04-18T21:54:07.630Z,5.95
2023-04-18T21:56:34.097Z,6.28
2023-04-18T21:59:00.442Z,5.95
2023-04-18T22:01:26.804Z,6.13
2023-04-18T22:03:53.451Z,6.32
2023-04-18T22:06:20.735Z,5.38
2023-04-18T22:08:48.065Z,6.10
2023-04-18T22:11:15.481Z,6.15
2023-04-18T22:13:44.725Z,5.88
2023-04-18T22:16:11.147Z,5.32
2023-04-18T22:18:38.161Z,5.45
2023-04-18T22:21:04.674Z,6.40
2023-04-18T22:23:31.015Z,6.18
2023-04-18T22:25:57.323Z,6.00
2023-04-18T22:28:23.617Z,5.85
2023-04-18T22:30:50.742Z,5.40
2023-04-18T22:33:17.040Z,6.07
2023-04-18T22:35:43.421Z,5.25
2023-04-18T22:38:10.206Z,5.63
2023-04-18T22:40:36.537Z,5.03
2023-04-18T22:43:02.805Z,5.53
2023-04-18T22:45:29.120Z,5.50
2023-04-18T22:47:55.466Z,5.20
2023-04-18T22:50:21.878Z,4.78
2023-04-18T22:52:48.184Z,5.10
2023-04-18T22:55:16.389Z,5.10
2023-04-18T22:57:42.741Z,4.85
2023-04-18T23:00:12.159Z,4.93
2023-04-18T23:02:38.582Z,4.35
2023-04-18T23:05:07.312Z,4.03
2023-04-18T23:07:33.632Z,4.68
2023-04-18T23:09:59.902Z,4.95
2023-04-18T23:12:26.724Z,4.75
2023-04-18T23:14:53.005Z,4.90
2023-04-18T23:17:19.319Z,4.80
2023-04-18T23:19:45.647Z,5.00
2023-04-18T23:22:11.979Z,3.75
2023-04-18T23:24:38.750Z,5.10
2023-04-18T23:27:05.158Z,4.13
2023-04-18T23:29:31.486Z,4.25
2023-04-18T23:31:57.826Z,4.78
2023-04-18T23:34:24.204Z,3.85
2023-04-18T23:36:50.520Z,4.32
2023-04-18T23:39:18.390Z,3.10
2023-04-18T23:41:45.498Z,4.65
2023-04-18T23:44:11.793Z,3.95
2023-04-18T23:46:38.103Z,4.40
2023-04-18T23:49:04.400Z,4.30
2023-04-18T23:51:30.962Z,4.15
2023-04-18T23:53:57.214Z,4.20
2023-04-18T23:56:23.611Z,4.75
2023-04-18T23:58:50.099Z,4.05
